Hamnavoe — VSTY7 — position and weather

sailwx.info

Track history (hours):
 
Tides and Currents Weather Stations Pressure Air Temp Water Temp Dewpoint Dewpoint Depression Visibility Wind Speed Wind Dir Waves Ship Positions

Hamnavoe

Operator: NorthLink Orkey & Shetland Ferries Ltd

Last reported at 2018-Feb-22 16:48 UTC. Time now 2018-Feb-22 17:09 UTC.
Position N 58°57' W 003°18'.

Length 112 m; draft 4.2 m.

Type: Ship. MMSI: 235449000.

Date/timePositionNaut miles runAvg speedWind from/ knotsBaromVisibWave heightAir tempDewpointWater temp
2018-Feb-22 16:48N 58°57' W 003°18'1 0.1
2018-Feb-22 10:00N 58°58' W 003°18'11 3.9
2018-Feb-22 07:14N 58°49' W 003°29'718.7
2018-Feb-22 06:52N 58°55' W 003°26'5 0.4
2018-Feb-21 20:12N 58°58' W 003°18'513.3
2018-Feb-21 19:50N 58°55' W 003°26'619.1
2018-Feb-21 19:30N 58°49' W 003°29'8 4.9
2018-Feb-21 17:52N 58°41' W 003°31'818.1
2018-Feb-21 17:25N 58°49' W 003°29'916.5
2018-Feb-21 16:53N 58°57' W 003°21'2 0.3
2018-Feb-21 10:07N 58°58' W 003°18'514.0
2018-Feb-21 09:47N 58°55' W 003°26'517.2
2018-Feb-21 09:30N 58°50' W 003°28'9 5.1
2018-Feb-21 07:42N 58°41' W 003°31'818.2
2018-Feb-21 07:16N 58°49' W 003°29'618.4
2018-Feb-21 06:55N 58°55' W 003°25'5 0.4
2018-Feb-20 20:21N 58°58' W 003°18'514.2
2018-Feb-20 20:00N 58°55' W 003°26'14 6.5
2018-Feb-20 17:53N 58°41' W 003°31'818.0
2018-Feb-20 17:25N 58°50' W 003°29'915.9
2018-Feb-20 16:53N 58°57' W 003°19'1 0.2
2018-Feb-20 10:05N 58°58' W 003°18'1 8.7
2018-Feb-20 10:00N 58°57' W 003°17'16 6.3
2018-Feb-20 07:31N 58°43' W 003°30'018.9
2018-Feb-20 07:30N 58°43' W 003°30'1218.8
2018-Feb-20 06:52N 58°55' W 003°26'513.8
2018-Feb-20 06:30N 58°58' W 003°18'0 0.0
2018-Feb-19 20:17N 58°58' W 003°18'413.5
2018-Feb-19 20:00N 58°56' W 003°25'15 7.0
2018-Feb-19 17:49N 58°41' W 003°31'818.6
2018-Feb-19 17:25N 58°49' W 003°29'818.6
2018-Feb-19 16:59N 58°56' W 003°26'4 0.6
2018-Feb-19 10:00N 58°58' W 003°18'914.6
2018-Feb-19 09:24N 58°50' W 003°28'7 4.0
2018-Feb-19 07:33N 58°43' W 003°30'119.1
2018-Feb-19 07:29N 58°44' W 003°30'1118.9
2018-Feb-19 06:56N 58°55' W 003°26'5 0.5
2018-Feb-18 20:17N 58°58' W 003°18'412.6
2018-Feb-18 19:57N 58°56' W 003°25'15 6.7
2018-Feb-18 17:46N 58°41' W 003°31'818.1
2018-Feb-18 17:20N 58°49' W 003°29'916.4
2018-Feb-18 16:45N 58°57' W 003°18'1 0.2
2018-Feb-18 13:10N 58°57' W 003°18'18 5.8
2018-Feb-18 10:09N 58°41' W 003°30'1716.8
2018-Feb-18 09:09N 58°57' W 003°19'1 0.1
2018-Feb-17 20:13N 58°58' W 003°18'513.9
2018-Feb-17 19:50N 58°55' W 003°26'12 5.7
2018-Feb-17 17:46N 58°43' W 003°30'717.7
2018-Feb-17 17:23N 58°50' W 003°29'915.6
2018-Feb-17 16:49N 58°57' W 003°19'1 0.3
2018-Feb-17 13:16N 58°58' W 003°18'310.2
2018-Feb-17 12:59N 58°56' W 003°23'8 2.5
2018-Feb-17 09:43N 58°49' W 003°29'618.8
2018-Feb-17 09:25N 58°54' W 003°27'513.6
2018-Feb-17 09:00N 58°57' W 003°18'0 0.0
2018-Feb-16 20:30N 58°58' W 003°18'815.2
2018-Feb-16 20:00N 58°51' W 003°11'915.4
2018-Feb-16 19:26N 58°42' W 003°16'8 5.0
2018-Feb-16 17:51N 58°43' W 003°31'1515.3
2018-Feb-16 16:51N 58°57' W 003°19'1 0.1
2018-Feb-16 10:15N 58°58' W 003°18'516.2
2018-Feb-16 09:58N 58°54' W 003°13'716.2
2018-Feb-16 09:30N 58°47' W 003°08'1121.3
2018-Feb-16 08:59N 58°41' W 003°26'5 5.6
2018-Feb-16 08:06N 58°37' W 003°32'417.0
2018-Feb-16 07:51N 58°41' W 003°31'1217.3
2018-Feb-16 07:09N 58°53' W 003°29'613.9
2018-Feb-16 06:42N 58°57' W 003°19'1 0.1
2018-Feb-15 20:39N 58°58' W 003°18'210.4
2018-Feb-15 20:26N 58°56' W 003°15'716.7
2018-Feb-15 19:59N 58°49' W 003°09'816.9
2018-Feb-15 19:31N 58°43' W 003°19'9 5.0
2018-Feb-15 17:45N 58°46' W 003°35'1215.6
2018-Feb-15 16:58N 58°57' W 003°22'3 0.4
2018-Feb-15 09:58N 58°58' W 003°18'10 3.6
2018-Feb-15 07:12N 58°49' W 003°29'518.2
2018-Feb-15 06:57N 58°54' W 003°27'613.1
2018-Feb-15 06:30N 58°57' W 003°17'1 0.1
2018-Feb-14 20:23N 58°58' W 003°18'3 7.6
2018-Feb-14 20:00N 58°57' W 003°23'14 6.2
2018-Feb-14 17:44N 58°43' W 003°30'717.7
2018-Feb-14 17:20N 58°50' W 003°28'815.5
2018-Feb-14 16:49N 58°57' W 003°19'1 0.2
2018-Feb-14 10:03N 58°58' W 003°18'0 9.0
2018-Feb-14 09:59N 58°57' W 003°17'15 6.5
2018-Feb-14 07:36N 58°43' W 003°30'1217.9
2018-Feb-14 06:58N 58°54' W 003°26'6 0.5
2018-Feb-13 20:22N 58°58' W 003°18'6 1.7
2018-Feb-13 17:05N 58°54' W 003°26'514.9
2018-Feb-13 16:46N 58°57' W 003°19'1 0.2
2018-Feb-13 10:07N 58°58' W 003°18'1 8.4
2018-Feb-13 10:01N 58°57' W 003°17'9 3.3
2018-Feb-13 07:07N 58°49' W 003°28'518.8
2018-Feb-13 06:51N 58°54' W 003°27'515.3
2018-Feb-13 06:30N 58°57' W 003°18'1 0.1
2018-Feb-12 20:31N 58°58' W 003°18'0 3.4
2018-Feb-12 20:30N 58°58' W 003°18'714.5
2018-Feb-12 20:00N 58°51' W 003°11'814.0
2018-Feb-12 19:25N 58°44' W 003°18'7 4.8
2018-Feb-12 17:56N 58°41' W 003°31'1715.3
2018-Feb-12 16:50N 58°57' W 003°20'  
Track history (hours):
 
Tides and Currents Weather Stations Pressure Air Temp Water Temp Dewpoint Dewpoint Depression Visibility Wind Speed Wind Dir Waves Ship Positions

Hamnavoe

Operator: NorthLink Orkey & Shetland Ferries Ltd

Last reported at 2018-Feb-22 16:48 UTC. Time now 2018-Feb-22 17:09 UTC.
Position N 58°57' W 003°18'.

Length 112 m; draft 4.2 m.

Type: Ship. MMSI: 235449000.

Date/timePositionNaut miles runAvg speedWind from/ knotsBaromVisibWave heightAir tempDewpointWater temp
2018-Feb-22 16:48N 58°57' W 003°18'1 0.1
2018-Feb-22 10:00N 58°58' W 003°18'11 3.9
2018-Feb-22 07:14N 58°49' W 003°29'718.7
2018-Feb-22 06:52N 58°55' W 003°26'5 0.4
2018-Feb-21 20:12N 58°58' W 003°18'513.3
2018-Feb-21 19:50N 58°55' W 003°26'619.1
2018-Feb-21 19:30N 58°49' W 003°29'8 4.9
2018-Feb-21 17:52N 58°41' W 003°31'818.1
2018-Feb-21 17:25N 58°49' W 003°29'916.5
2018-Feb-21 16:53N 58°57' W 003°21'2 0.3
2018-Feb-21 10:07N 58°58' W 003°18'514.0
2018-Feb-21 09:47N 58°55' W 003°26'517.2
2018-Feb-21 09:30N 58°50' W 003°28'9 5.1
2018-Feb-21 07:42N 58°41' W 003°31'818.2
2018-Feb-21 07:16N 58°49' W 003°29'618.4
2018-Feb-21 06:55N 58°55' W 003°25'5 0.4
2018-Feb-20 20:21N 58°58' W 003°18'514.2
2018-Feb-20 20:00N 58°55' W 003°26'14 6.5
2018-Feb-20 17:53N 58°41' W 003°31'818.0
2018-Feb-20 17:25N 58°50' W 003°29'915.9
2018-Feb-20 16:53N 58°57' W 003°19'1 0.2
2018-Feb-20 10:05N 58°58' W 003°18'1 8.7
2018-Feb-20 10:00N 58°57' W 003°17'16 6.3
2018-Feb-20 07:31N 58°43' W 003°30'018.9
2018-Feb-20 07:30N 58°43' W 003°30'1218.8
2018-Feb-20 06:52N 58°55' W 003°26'513.8
2018-Feb-20 06:30N 58°58' W 003°18'0 0.0
2018-Feb-19 20:17N 58°58' W 003°18'413.5
2018-Feb-19 20:00N 58°56' W 003°25'15 7.0
2018-Feb-19 17:49N 58°41' W 003°31'818.6
2018-Feb-19 17:25N 58°49' W 003°29'818.6
2018-Feb-19 16:59N 58°56' W 003°26'4 0.6
2018-Feb-19 10:00N 58°58' W 003°18'914.6
2018-Feb-19 09:24N 58°50' W 003°28'7 4.0
2018-Feb-19 07:33N 58°43' W 003°30'119.1
2018-Feb-19 07:29N 58°44' W 003°30'1118.9
2018-Feb-19 06:56N 58°55' W 003°26'5 0.5
2018-Feb-18 20:17N 58°58' W 003°18'412.6
2018-Feb-18 19:57N 58°56' W 003°25'15 6.7
2018-Feb-18 17:46N 58°41' W 003°31'818.1
2018-Feb-18 17:20N 58°49' W 003°29'916.4
2018-Feb-18 16:45N 58°57' W 003°18'1 0.2
2018-Feb-18 13:10N 58°57' W 003°18'18 5.8
2018-Feb-18 10:09N 58°41' W 003°30'1716.8
2018-Feb-18 09:09N 58°57' W 003°19'1 0.1
2018-Feb-17 20:13N 58°58' W 003°18'513.9
2018-Feb-17 19:50N 58°55' W 003°26'12 5.7
2018-Feb-17 17:46N 58°43' W 003°30'717.7
2018-Feb-17 17:23N 58°50' W 003°29'915.6
2018-Feb-17 16:49N 58°57' W 003°19'1 0.3
2018-Feb-17 13:16N 58°58' W 003°18'310.2
2018-Feb-17 12:59N 58°56' W 003°23'8 2.5
2018-Feb-17 09:43N 58°49' W 003°29'618.8
2018-Feb-17 09:25N 58°54' W 003°27'513.6
2018-Feb-17 09:00N 58°57' W 003°18'0 0.0
2018-Feb-16 20:30N 58°58' W 003°18'815.2
2018-Feb-16 20:00N 58°51' W 003°11'915.4
2018-Feb-16 19:26N 58°42' W 003°16'8 5.0
2018-Feb-16 17:51N 58°43' W 003°31'1515.3
2018-Feb-16 16:51N 58°57' W 003°19'1 0.1
2018-Feb-16 10:15N 58°58' W 003°18'516.2
2018-Feb-16 09:58N 58°54' W 003°13'716.2
2018-Feb-16 09:30N 58°47' W 003°08'1121.3
2018-Feb-16 08:59N 58°41' W 003°26'5 5.6
2018-Feb-16 08:06N 58°37' W 003°32'417.0
2018-Feb-16 07:51N 58°41' W 003°31'1217.3
2018-Feb-16 07:09N 58°53' W 003°29'613.9
2018-Feb-16 06:42N 58°57' W 003°19'1 0.1
2018-Feb-15 20:39N 58°58' W 003°18'210.4
2018-Feb-15 20:26N 58°56' W 003°15'716.7
2018-Feb-15 19:59N 58°49' W 003°09'816.9
2018-Feb-15 19:31N 58°43' W 003°19'9 5.0
2018-Feb-15 17:45N 58°46' W 003°35'1215.6
2018-Feb-15 16:58N 58°57' W 003°22'3 0.4
2018-Feb-15 09:58N 58°58' W 003°18'10 3.6
2018-Feb-15 07:12N 58°49' W 003°29'518.2
2018-Feb-15 06:57N 58°54' W 003°27'613.1
2018-Feb-15 06:30N 58°57' W 003°17'1 0.1
2018-Feb-14 20:23N 58°58' W 003°18'3 7.6
2018-Feb-14 20:00N 58°57' W 003°23'14 6.2
2018-Feb-14 17:44N 58°43' W 003°30'717.7
2018-Feb-14 17:20N 58°50' W 003°28'815.5
2018-Feb-14 16:49N 58°57' W 003°19'1 0.2
2018-Feb-14 10:03N 58°58' W 003°18'0 9.0
2018-Feb-14 09:59N 58°57' W 003°17'15 6.5
2018-Feb-14 07:36N 58°43' W 003°30'1217.9
2018-Feb-14 06:58N 58°54' W 003°26'6 0.5
2018-Feb-13 20:22N 58°58' W 003°18'6 1.7
2018-Feb-13 17:05N 58°54' W 003°26'514.9
2018-Feb-13 16:46N 58°57' W 003°19'1 0.2
2018-Feb-13 10:07N 58°58' W 003°18'1 8.4
2018-Feb-13 10:01N 58°57' W 003°17'9 3.3
2018-Feb-13 07:07N 58°49' W 003°28'518.8
2018-Feb-13 06:51N 58°54' W 003°27'515.3
2018-Feb-13 06:30N 58°57' W 003°18'1 0.1
2018-Feb-12 20:31N 58°58' W 003°18'0 3.4
2018-Feb-12 20:30N 58°58' W 003°18'714.5
2018-Feb-12 20:00N 58°51' W 003°11'814.0
2018-Feb-12 19:25N 58°44' W 003°18'7 4.8
2018-Feb-12 17:56N 58°41' W 003°31'1715.3
2018-Feb-12 16:50N 58°57' W 003°20'  

Dump ship's entire track history